Kamloops, Canada
Current Conditions -  °F | °C
As of 5:00 PM on Friday 31 Oct 2014 (Local Time) from CYKA Reporting Station
Overcast Overcast  
Wind Chill: 50°   Ceiling: 6500
Heat Index: 50°   Visibility: 40mi
Dew Point: 45°   Wind: 7mph
Humidity: 82%   Direction: 260°W
Pressure: 29.72"   Gusts: NA
Location:  50.68°N, 120.34°W
Report Text: CYKA 010000Z 26006KT 40SM FEW012 BKN065 OVC120 10/07 A2972 RMK SF1SC5AC3 SF TR SLP070
Loading
Personal Weather Stations






























Interactive Weather Map
Tropical Storm Tracking
New forecast layout! Learn more

10-Day Weather Forecast

Advertisements
Track Severe Weather on mobile